createdAt,value
2023-12-23T00:01:16.929Z,85.06
2023-12-23T00:03:50.152Z,83.69
2023-12-23T00:06:19.418Z,83.14
2023-12-23T00:08:48.329Z,83.45
2023-12-23T00:11:17.138Z,83.90
2023-12-23T00:13:45.913Z,83.92
2023-12-23T00:16:14.677Z,83.81
2023-12-23T00:18:43.574Z,84.11
2023-12-23T00:21:12.451Z,84.93
2023-12-23T00:23:41.312Z,85.67
2023-12-23T00:26:10.331Z,85.34
2023-12-23T00:28:39.699Z,84.72
2023-12-23T00:31:08.476Z,85.20
2023-12-23T00:33:37.563Z,86.09
2023-12-23T00:36:07.423Z,87.70
2023-12-23T00:38:36.668Z,88.53
2023-12-23T00:41:05.745Z,88.86
2023-12-23T00:43:34.529Z,89.59
2023-12-23T00:46:03.626Z,90.12
2023-12-23T00:48:32.503Z,91.46
2023-12-23T00:51:01.836Z,91.62
2023-12-23T00:53:30.715Z,92.16
2023-12-23T00:55:59.484Z,92.55
2023-12-23T00:58:36.448Z,93.27
2023-12-23T01:01:09.357Z,93.90
2023-12-23T01:03:38.569Z,93.92
2023-12-23T01:06:07.592Z,94.56
2023-12-23T01:08:36.552Z,95.16
2023-12-23T01:11:05.816Z,95.81
2023-12-23T01:13:34.758Z,95.92
2023-12-23T01:16:03.760Z,96.72
2023-12-23T01:18:32.507Z,96.71
2023-12-23T01:21:01.258Z,97.65
2023-12-23T01:23:30.093Z,98.55
2023-12-23T01:25:58.954Z,97.53
2023-12-23T01:28:27.659Z,99.64
2023-12-23T01:30:57.026Z,100.00
2023-12-23T01:33:25.855Z,100.00
2023-12-23T01:35:54.824Z,99.46
2023-12-23T01:38:23.821Z,98.17
2023-12-23T01:40:52.842Z,97.96
2023-12-23T01:43:21.948Z,98.78
2023-12-23T01:45:53.287Z,98.58
2023-12-23T01:48:24.194Z,98.88
2023-12-23T01:50:55.587Z,99.22
2023-12-23T01:53:26.007Z,100.00
2023-12-23T01:55:55.896Z,100.00
2023-12-23T01:58:24.866Z,100.00
2023-12-23T02:00:53.923Z,100.00
2023-12-23T02:03:22.722Z,100.00
2023-12-23T02:05:51.644Z,100.00
2023-12-23T02:08:20.984Z,100.00
2023-12-23T02:11:01.148Z,100.00
2023-12-23T02:13:38.614Z,100.00
2023-12-23T02:16:08.264Z,100.00
2023-12-23T02:18:37.929Z,100.00
2023-12-23T02:21:07.017Z,100.00
2023-12-23T02:23:36.050Z,100.00
2023-12-23T02:26:09.979Z,100.00
2023-12-23T02:28:41.873Z,100.00
2023-12-23T02:31:11.688Z,100.00
2023-12-23T02:33:40.525Z,100.00
2023-12-23T02:36:10.199Z,100.00
2023-12-23T02:38:38.961Z,100.00
2023-12-23T02:41:08.136Z,100.00
2023-12-23T02:43:36.993Z,100.00
2023-12-23T02:46:06.453Z,100.00
2023-12-23T02:48:35.531Z,100.00
2023-12-23T02:51:04.646Z,100.00
2023-12-23T02:53:33.513Z,100.00
2023-12-23T02:56:02.505Z,100.00
2023-12-23T02:58:33.198Z,100.00
2023-12-23T03:01:08.567Z,100.00
2023-12-23T03:03:38.763Z,100.00
2023-12-23T03:06:07.962Z,100.00
2023-12-23T03:08:37.877Z,100.00
2023-12-23T03:11:06.904Z,100.00
2023-12-23T03:13:37.596Z,100.00
2023-12-23T03:16:18.252Z,100.00
2023-12-23T03:21:58.931Z,100.00
2023-12-23T03:24:27.857Z,100.00
2023-12-23T03:26:58.862Z,100.00
2023-12-23T03:29:27.477Z,100.00
2023-12-23T03:31:56.374Z,100.00
2023-12-23T03:34:25.134Z,100.00
2023-12-23T03:36:53.908Z,100.00
2023-12-23T03:39:22.771Z,100.00
2023-12-23T03:41:51.685Z,100.00
2023-12-23T03:44:22.180Z,100.00
2023-12-23T03:46:51.052Z,100.00
2023-12-23T03:49:19.782Z,100.00
2023-12-23T03:51:48.517Z,100.00
2023-12-23T03:54:28.558Z,100.00
2023-12-23T03:56:59.918Z,100.00
2023-12-23T03:59:29.105Z,100.00
2023-12-23T04:01:58.295Z,100.00
2023-12-23T04:04:27.612Z,100.00
2023-12-23T04:06:56.478Z,100.00
2023-12-23T04:09:29.432Z,100.00
2023-12-23T04:11:59.159Z,100.00
2023-12-23T04:14:28.682Z,100.00
2023-12-23T04:17:00.317Z,100.00
2023-12-23T04:19:29.331Z,100.00
2023-12-23T04:21:58.545Z,100.00
2023-12-23T04:24:30.495Z,100.00
2023-12-23T04:26:59.354Z,100.00
2023-12-23T04:29:31.166Z,100.00
2023-12-23T04:32:00.080Z,100.00
2023-12-23T04:34:29.551Z,100.00
2023-12-23T04:36:58.463Z,100.00
2023-12-23T04:39:27.380Z,100.00
2023-12-23T04:41:56.243Z,100.00
2023-12-23T04:44:25.558Z,100.00
2023-12-23T04:46:54.368Z,100.00
2023-12-23T04:49:23.145Z,100.00
2023-12-23T04:51:54.421Z,100.00
2023-12-23T04:54:23.654Z,100.00
2023-12-23T04:56:52.507Z,100.00
2023-12-23T04:59:21.519Z,100.00
2023-12-23T05:01:52.213Z,100.00
2023-12-23T05:04:20.957Z,100.00
2023-12-23T05:06:50.013Z,100.00
2023-12-23T05:09:18.771Z,100.00
2023-12-23T05:11:47.448Z,100.00
2023-12-23T05:14:16.741Z,100.00
2023-12-23T05:16:45.679Z,100.00
2023-12-23T05:19:14.684Z,100.00
2023-12-23T05:21:45.371Z,100.00
2023-12-23T05:24:14.168Z,100.00
2023-12-23T05:26:43.102Z,100.00
2023-12-23T05:29:11.827Z,100.00
2023-12-23T05:31:40.832Z,100.00
2023-12-23T05:34:11.385Z,100.00
2023-12-23T05:36:40.228Z,100.00
2023-12-23T05:39:09.588Z,100.00
2023-12-23T05:41:38.505Z,100.00
2023-12-23T05:44:09.199Z,100.00
2023-12-23T05:46:38.117Z,100.00
2023-12-23T05:49:07.043Z,100.00
2023-12-23T05:51:36.052Z,100.00
2023-12-23T05:54:05.328Z,100.00
2023-12-23T05:56:34.201Z,100.00
2023-12-23T05:59:03.400Z,100.00
2023-12-23T06:01:32.488Z,100.00
2023-12-23T06:04:01.478Z,100.00
2023-12-23T06:06:30.409Z,100.00
2023-12-23T06:08:59.318Z,100.00
2023-12-23T06:11:28.192Z,100.00
2023-12-23T06:17:12.888Z,100.00
2023-12-23T06:19:42.035Z,100.00
2023-12-23T06:22:11.145Z,100.00
2023-12-23T06:24:40.080Z,100.00
2023-12-23T06:27:08.934Z,100.00
2023-12-23T06:29:37.655Z,100.00
2023-12-23T06:32:07.056Z,100.00
2023-12-23T06:34:36.365Z,100.00
2023-12-23T06:37:05.165Z,100.00
2023-12-23T06:39:34.339Z,100.00
2023-12-23T06:42:03.350Z,100.00
2023-12-23T06:44:32.312Z,100.00
2023-12-23T06:47:01.351Z,100.00
2023-12-23T06:49:30.553Z,100.00
2023-12-23T06:52:02.296Z,100.00
2023-12-23T06:54:31.130Z,100.00
2023-12-23T06:56:59.900Z,100.00
2023-12-23T06:59:28.744Z,100.00
2023-12-23T07:01:57.805Z,100.00
2023-12-23T07:04:26.756Z,100.00
2023-12-23T07:06:55.517Z,100.00
2023-12-23T07:09:24.603Z,100.00
2023-12-23T07:11:53.657Z,100.00
2023-12-23T07:14:22.917Z,100.00
2023-12-23T07:16:52.632Z,100.00
2023-12-23T07:19:22.442Z,100.00
2023-12-23T07:21:54.794Z,100.00
2023-12-23T07:24:24.131Z,100.00
2023-12-23T07:26:53.235Z,100.00
2023-12-23T07:29:23.240Z,100.00
2023-12-23T07:31:52.714Z,100.00
2023-12-23T07:34:21.981Z,100.00
2023-12-23T07:36:50.874Z,100.00
2023-12-23T07:39:20.781Z,100.00
2023-12-23T07:41:49.496Z,100.00
2023-12-23T07:44:18.545Z,100.00
2023-12-23T07:46:47.679Z,100.00
2023-12-23T07:49:16.643Z,100.00
2023-12-23T07:51:47.396Z,100.00
2023-12-23T07:54:16.438Z,100.00
2023-12-23T07:56:45.442Z,100.00
2023-12-23T07:59:32.907Z,100.00
2023-12-23T08:02:02.033Z,100.00
2023-12-23T08:04:32.706Z,100.00
2023-12-23T08:07:01.793Z,100.00
2023-12-23T08:09:30.526Z,100.00
2023-12-23T08:11:59.495Z,100.00
2023-12-23T08:14:28.572Z,100.00
2023-12-23T08:16:57.447Z,100.00
2023-12-23T08:19:26.496Z,100.00
2023-12-23T08:21:55.295Z,100.00
2023-12-23T08:24:24.215Z,100.00
2023-12-23T08:26:53.068Z,100.00
2023-12-23T08:29:22.895Z,100.00
2023-12-23T08:31:51.760Z,100.00
2023-12-23T08:34:22.530Z,100.00
2023-12-23T08:36:51.699Z,100.00
2023-12-23T08:39:20.953Z,100.00
2023-12-23T08:41:49.877Z,100.00
2023-12-23T08:44:22.620Z,100.00
2023-12-23T08:46:52.323Z,100.00
2023-12-23T08:49:21.443Z,100.00
2023-12-23T08:51:50.418Z,100.00
2023-12-23T08:54:19.227Z,100.00
2023-12-23T08:56:48.162Z,100.00
2023-12-23T08:59:17.789Z,100.00
2023-12-23T09:01:46.675Z,100.00
2023-12-23T09:04:15.670Z,100.00
2023-12-23T09:06:44.656Z,100.00
2023-12-23T09:09:13.709Z,100.00
2023-12-23T09:11:44.879Z,100.00
2023-12-23T09:14:13.738Z,100.00
2023-12-23T09:16:42.828Z,100.00
2023-12-23T09:19:11.818Z,100.00
2023-12-23T09:21:40.708Z,100.00
2023-12-23T09:24:09.645Z,100.00
2023-12-23T09:26:38.590Z,100.00
2023-12-23T09:29:07.648Z,100.00
2023-12-23T09:31:36.681Z,100.00
2023-12-23T09:34:06.169Z,100.00
2023-12-23T09:36:35.161Z,100.00
2023-12-23T09:39:03.991Z,100.00
2023-12-23T09:41:33.456Z,100.00
2023-12-23T09:44:02.682Z,99.69
2023-12-23T09:46:33.055Z,99.24
2023-12-23T09:49:04.924Z,99.68
2023-12-23T09:53:46.626Z,99.89
2023-12-23T09:56:16.728Z,100.00
2023-12-23T09:58:45.821Z,100.00
2023-12-23T10:01:14.809Z,100.00
2023-12-23T10:03:43.716Z,100.00
2023-12-23T10:06:16.453Z,100.00
2023-12-23T10:08:47.418Z,100.00
2023-12-23T10:11:16.200Z,100.00
2023-12-23T10:13:45.057Z,100.00
2023-12-23T10:16:17.072Z,100.00
2023-12-23T10:18:47.781Z,100.00
2023-12-23T10:21:16.749Z,99.77
2023-12-23T10:23:47.559Z,98.64
2023-12-23T10:26:16.961Z,97.12
2023-12-23T10:28:55.282Z,97.76
2023-12-23T10:31:27.933Z,97.38
2023-12-23T10:34:00.953Z,97.21
2023-12-23T10:36:29.490Z,94.91
2023-12-23T10:39:07.359Z,93.71
2023-12-23T10:41:57.123Z,92.69
2023-12-23T10:44:31.307Z,93.08
2023-12-23T10:47:08.623Z,93.55
2023-12-23T10:49:37.522Z,93.50
2023-12-23T10:52:07.932Z,94.65
2023-12-23T10:54:38.289Z,94.47
2023-12-23T10:57:08.180Z,94.14
2023-12-23T10:59:37.397Z,92.61
2023-12-23T11:02:15.027Z,93.14
2023-12-23T11:04:56.901Z,91.82
2023-12-23T11:07:39.580Z,91.44
2023-12-23T11:10:09.653Z,90.50
2023-12-23T11:12:39.462Z,89.90
2023-12-23T11:15:08.929Z,88.62
2023-12-23T11:17:44.503Z,88.63
2023-12-23T11:20:49.198Z,89.01
2023-12-23T11:23:36.684Z,88.70
2023-12-23T11:26:06.457Z,89.04
2023-12-23T11:28:39.047Z,89.03
2023-12-23T11:31:10.324Z,88.36
2023-12-23T11:33:40.815Z,86.36
2023-12-23T11:36:10.071Z,85.52
2023-12-23T11:38:50.077Z,83.32
2023-12-23T11:41:22.611Z,81.77
2023-12-23T11:43:52.113Z,82.40
2023-12-23T11:46:25.606Z,80.31
2023-12-23T11:48:59.026Z,80.08
2023-12-23T11:51:28.272Z,80.58
2023-12-23T11:54:00.061Z,82.55
2023-12-23T11:56:29.660Z,82.80
2023-12-23T11:59:02.327Z,84.10
2023-12-23T12:01:36.773Z,84.65
2023-12-23T12:04:07.039Z,84.82
2023-12-23T12:06:36.210Z,84.44
2023-12-23T12:09:07.891Z,85.53
2023-12-23T12:11:56.757Z,85.28
2023-12-23T12:14:27.619Z,83.88
2023-12-23T12:16:56.543Z,84.81
2023-12-23T12:19:25.926Z,84.28
2023-12-23T12:21:54.721Z,84.28
2023-12-23T12:24:23.541Z,83.93
2023-12-23T12:26:54.554Z,84.29
2023-12-23T12:29:24.459Z,82.01
2023-12-23T12:31:54.354Z,82.22
2023-12-23T12:34:23.722Z,82.49
2023-12-23T12:36:53.981Z,82.73
2023-12-23T12:39:23.114Z,82.33
2023-12-23T12:41:53.128Z,81.53
2023-12-23T12:44:22.984Z,82.09
2023-12-23T12:46:57.528Z,82.44
2023-12-23T12:49:26.240Z,82.91
2023-12-23T12:51:55.228Z,82.68
2023-12-23T12:54:26.688Z,81.60
2023-12-23T12:56:56.350Z,81.76
2023-12-23T12:59:25.163Z,80.53
2023-12-23T13:01:55.313Z,80.42
2023-12-23T13:04:24.707Z,80.46
2023-12-23T13:06:53.929Z,80.81
2023-12-23T13:09:23.192Z,81.20
2023-12-23T13:11:52.917Z,81.74
2023-12-23T13:14:22.059Z,81.92
2023-12-23T13:16:51.070Z,82.77
2023-12-23T13:19:20.746Z,82.98
2023-12-23T13:21:51.435Z,83.31
2023-12-23T13:24:20.747Z,82.88
2023-12-23T13:26:52.314Z,82.03
2023-12-23T13:29:22.885Z,81.79
2023-12-23T13:31:52.020Z,81.32
2023-12-23T13:37:52.223Z,82.00
2023-12-23T13:40:21.796Z,81.63
2023-12-23T13:42:51.426Z,82.03
2023-12-23T13:45:20.936Z,82.33
2023-12-23T13:47:53.635Z,81.88
2023-12-23T13:50:22.937Z,80.67
2023-12-23T13:52:52.470Z,80.26
2023-12-23T13:55:21.789Z,79.44
2023-12-23T13:57:50.674Z,80.17
2023-12-23T14:00:19.780Z,79.43
2023-12-23T14:02:49.247Z,78.43
2023-12-23T14:05:18.721Z,79.62
2023-12-23T14:07:47.730Z,79.16
2023-12-23T14:10:16.815Z,78.34
2023-12-23T14:12:45.759Z,77.45
2023-12-23T14:15:14.884Z,77.38
2023-12-23T14:17:43.865Z,76.04
2023-12-23T14:20:13.394Z,75.58
2023-12-23T14:22:42.157Z,74.59
2023-12-23T14:25:10.992Z,73.94
2023-12-23T14:27:39.787Z,73.64
2023-12-23T14:30:09.189Z,74.52
2023-12-23T14:32:38.216Z,74.75
2023-12-23T14:35:08.081Z,74.59
2023-12-23T14:37:44.862Z,74.03
2023-12-23T14:40:17.843Z,73.16
2023-12-23T14:42:47.662Z,72.83
2023-12-23T14:45:18.643Z,73.13
2023-12-23T14:47:47.788Z,73.88
2023-12-23T14:50:20.417Z,74.82
2023-12-23T14:52:49.541Z,75.90
2023-12-23T14:55:18.948Z,77.05
2023-12-23T14:57:47.938Z,78.35
2023-12-23T15:00:17.680Z,78.64
2023-12-23T15:02:46.645Z,79.50
2023-12-23T15:05:16.378Z,80.21
2023-12-23T15:07:45.434Z,80.20
2023-12-23T15:10:14.915Z,79.99
2023-12-23T15:12:43.697Z,79.51
2023-12-23T15:15:12.490Z,79.39
2023-12-23T15:17:42.046Z,79.28
2023-12-23T15:20:11.470Z,79.29
2023-12-23T15:22:40.467Z,79.38
2023-12-23T15:25:10.051Z,78.85
2023-12-23T15:27:38.900Z,78.99
2023-12-23T15:30:09.093Z,78.98
2023-12-23T15:32:38.675Z,78.89
2023-12-23T15:35:08.180Z,78.85
2023-12-23T15:37:37.087Z,78.64
2023-12-23T15:40:07.454Z,78.70
2023-12-23T15:42:36.216Z,78.93
2023-12-23T15:45:05.668Z,79.14
2023-12-23T15:47:35.101Z,79.53
2023-12-23T15:50:04.808Z,80.07
2023-12-23T15:52:34.137Z,80.35
2023-12-23T15:55:03.805Z,80.64
2023-12-23T15:57:32.796Z,80.78
2023-12-23T16:00:02.124Z,81.03
2023-12-23T16:02:40.982Z,81.21
2023-12-23T16:05:11.050Z,81.26
2023-12-23T16:07:39.867Z,81.35
2023-12-23T16:10:09.396Z,81.06
2023-12-23T16:12:38.687Z,81.48
2023-12-23T16:15:08.741Z,81.65
2023-12-23T16:17:37.939Z,81.83
2023-12-23T16:20:08.839Z,82.20
2023-12-23T16:22:37.830Z,82.63
2023-12-23T16:25:07.274Z,83.23
2023-12-23T16:27:36.298Z,83.79
2023-12-23T16:30:06.775Z,83.71
2023-12-23T16:32:35.948Z,83.75
2023-12-23T16:35:06.917Z,84.00
2023-12-23T16:37:36.122Z,84.11
2023-12-23T16:40:06.075Z,84.46
2023-12-23T16:42:35.712Z,84.46
2023-12-23T16:45:06.512Z,84.07
2023-12-23T16:47:35.331Z,83.81
2023-12-23T16:50:05.555Z,83.87
2023-12-23T16:52:35.307Z,83.98
2023-12-23T16:55:06.173Z,83.78
2023-12-23T16:57:35.155Z,84.36
2023-12-23T17:00:06.180Z,84.53
2023-12-23T17:02:35.300Z,84.81
2023-12-23T17:05:04.407Z,84.86
2023-12-23T17:07:34.149Z,85.09
2023-12-23T17:10:03.000Z,85.38
2023-12-23T17:12:31.918Z,85.52
2023-12-23T17:15:00.839Z,86.16
2023-12-23T17:17:29.944Z,85.92
2023-12-23T17:19:59.272Z,86.46
2023-12-23T17:22:28.164Z,86.85
2023-12-23T17:24:57.179Z,87.02
2023-12-23T17:27:25.916Z,87.82
2023-12-23T17:30:01.189Z,88.00
2023-12-23T17:32:30.490Z,87.32
2023-12-23T17:35:01.995Z,86.88
2023-12-23T17:37:32.253Z,86.85
2023-12-23T17:40:01.396Z,86.66
2023-12-23T17:42:30.387Z,86.89
2023-12-23T17:44:59.904Z,87.03
2023-12-23T17:47:28.944Z,86.85
2023-12-23T17:49:57.710Z,87.10
2023-12-23T17:52:30.588Z,87.00
2023-12-23T17:55:07.472Z,86.84
2023-12-23T17:57:36.750Z,86.54
2023-12-23T18:00:06.582Z,86.04
2023-12-23T18:02:36.210Z,85.59
2023-12-23T18:05:05.919Z,85.16
2023-12-23T18:07:35.225Z,84.87
2023-12-23T18:10:05.754Z,84.94
2023-12-23T18:12:34.439Z,84.88
2023-12-23T18:15:04.512Z,85.04
2023-12-23T18:17:33.565Z,85.48
2023-12-23T18:20:02.747Z,85.67
2023-12-23T18:22:31.937Z,86.01
2023-12-23T18:25:01.014Z,86.32
2023-12-23T18:27:29.816Z,86.48
2023-12-23T18:29:58.799Z,86.87
2023-12-23T18:32:30.247Z,86.90
2023-12-23T18:35:00.778Z,86.94
2023-12-23T18:37:34.575Z,86.78
2023-12-23T18:40:04.235Z,86.40
2023-12-23T18:42:35.815Z,86.43
2023-12-23T18:45:07.358Z,86.02
2023-12-23T18:47:40.641Z,85.87
2023-12-23T18:50:10.363Z,85.96
2023-12-23T18:52:39.489Z,85.65
2023-12-23T18:55:09.041Z,85.63
2023-12-23T18:57:38.261Z,85.73
2023-12-23T19:00:09.603Z,85.92
2023-12-23T19:02:38.892Z,86.09
2023-12-23T19:05:09.746Z,86.35
2023-12-23T19:07:39.036Z,86.47
2023-12-23T19:10:08.208Z,86.33
2023-12-23T19:12:37.167Z,86.05
2023-12-23T19:15:06.874Z,86.04
2023-12-23T19:17:35.834Z,86.10
2023-12-23T19:20:05.448Z,85.99
2023-12-23T19:22:34.367Z,85.93
2023-12-23T19:25:04.584Z,85.94
2023-12-23T19:27:33.459Z,85.91
2023-12-23T19:30:05.844Z,85.96
2023-12-23T19:32:36.554Z,85.80
2023-12-23T19:35:06.308Z,85.77
2023-12-23T19:37:35.987Z,85.77
2023-12-23T19:40:10.342Z,85.59
2023-12-23T19:42:40.195Z,85.82
2023-12-23T19:45:10.043Z,85.70
2023-12-23T19:47:38.930Z,85.77
2023-12-23T19:50:09.321Z,85.43
2023-12-23T19:52:38.488Z,84.92
2023-12-23T19:55:16.950Z,84.45
2023-12-23T19:57:45.617Z,84.37
2023-12-23T20:00:15.305Z,84.24
2023-12-23T20:02:44.704Z,84.58
2023-12-23T20:05:14.603Z,84.98
2023-12-23T20:07:43.404Z,85.07
2023-12-23T20:10:12.429Z,85.07
2023-12-23T20:12:42.012Z,85.03
2023-12-23T20:15:11.254Z,84.64
2023-12-23T20:17:40.135Z,84.19
2023-12-23T20:20:10.096Z,82.89
2023-12-23T20:22:40.085Z,82.67
2023-12-23T20:25:09.110Z,81.66
2023-12-23T20:27:37.946Z,80.68
2023-12-23T20:30:07.928Z,80.08
2023-12-23T20:32:37.152Z,79.70
2023-12-23T20:35:06.571Z,78.44
2023-12-23T20:37:35.433Z,78.26
2023-12-23T20:40:05.164Z,77.36
2023-12-23T20:42:34.110Z,76.89
2023-12-23T20:45:03.566Z,76.32
2023-12-23T20:47:32.892Z,75.24
2023-12-23T20:50:02.168Z,75.22
2023-12-23T20:52:31.313Z,75.22
2023-12-23T20:55:00.192Z,74.85
2023-12-23T20:57:29.293Z,75.58
2023-12-23T20:59:58.510Z,76.01
2023-12-23T21:02:27.308Z,75.86
2023-12-23T21:04:56.259Z,76.04
2023-12-23T21:07:25.525Z,75.21
2023-12-23T21:09:56.497Z,74.74
2023-12-23T21:12:28.323Z,73.55
2023-12-23T21:14:59.922Z,73.32
2023-12-23T21:17:29.042Z,74.20
2023-12-23T21:19:58.162Z,74.67
2023-12-23T21:22:27.115Z,74.58
2023-12-23T21:24:56.450Z,74.71
2023-12-23T21:27:25.629Z,74.06
2023-12-23T21:29:54.430Z,73.15
2023-12-23T21:32:23.417Z,73.02
2023-12-23T21:34:52.383Z,72.84
2023-12-23T21:37:21.299Z,72.25
2023-12-23T21:39:50.073Z,72.09
2023-12-23T21:42:19.125Z,72.05
2023-12-23T21:44:48.269Z,71.48
2023-12-23T21:47:17.376Z,70.64
2023-12-23T21:49:47.735Z,70.73
2023-12-23T21:53:55.727Z,70.98
2023-12-23T21:56:24.754Z,70.90
2023-12-23T21:58:53.609Z,71.17
2023-12-23T22:01:22.521Z,70.78
2023-12-23T22:03:51.761Z,70.79
2023-12-23T22:06:21.646Z,70.11
2023-12-23T22:08:52.179Z,70.38
2023-12-23T22:11:22.139Z,70.36
2023-12-23T22:13:51.342Z,69.45
2023-12-23T22:16:20.213Z,69.84
2023-12-23T22:18:50.367Z,70.26
2023-12-23T22:21:19.355Z,70.07
2023-12-23T22:23:48.409Z,69.90
2023-12-23T22:26:18.520Z,69.81
2023-12-23T22:28:47.396Z,69.77
2023-12-23T22:31:16.192Z,70.15
2023-12-23T22:33:45.183Z,69.62
2023-12-23T22:36:14.431Z,68.24
2023-12-23T22:38:43.803Z,68.41
2023-12-23T22:41:13.200Z,69.38
2023-12-23T22:43:42.135Z,69.07
2023-12-23T22:46:10.970Z,69.33
2023-12-23T22:48:39.775Z,69.52
2023-12-23T22:51:08.915Z,69.72
2023-12-23T22:53:37.801Z,70.00
2023-12-23T22:56:08.294Z,69.77
2023-12-23T22:58:37.297Z,70.12
2023-12-23T23:01:06.200Z,70.21
2023-12-23T23:03:35.110Z,70.21
2023-12-23T23:06:04.377Z,70.28
2023-12-23T23:08:33.433Z,70.53
2023-12-23T23:11:02.285Z,70.40
2023-12-23T23:13:31.060Z,70.10
2023-12-23T23:15:59.904Z,70.29
2023-12-23T23:18:28.972Z,70.35
2023-12-23T23:20:58.012Z,70.04
2023-12-23T23:23:27.035Z,69.74
2023-12-23T23:25:55.764Z,69.40
2023-12-23T23:28:24.653Z,69.57
2023-12-23T23:30:53.766Z,69.30
2023-12-23T23:33:22.596Z,69.26
2023-12-23T23:35:51.596Z,69.54
2023-12-23T23:38:22.827Z,69.75
2023-12-23T23:40:51.978Z,69.56
2023-12-23T23:43:20.741Z,69.67
2023-12-23T23:45:50.696Z,69.34
2023-12-23T23:48:19.586Z,69.14
2023-12-23T23:50:48.525Z,69.08
2023-12-23T23:53:21.303Z,68.78
2023-12-23T23:55:50.069Z,68.99
2023-12-23T23:58:18.931Z,68.73
